createdAt,value
2022-08-23T00:00:35.438Z,0.00
2022-08-23T00:01:35.408Z,0.00
2022-08-23T00:02:42.277Z,0.00
2022-08-23T00:03:36.178Z,0.00
2022-08-23T00:04:35.389Z,0.00
2022-08-23T00:05:35.396Z,0.00
2022-08-23T00:06:35.155Z,0.00
2022-08-23T00:07:38.225Z,0.00
2022-08-23T00:08:35.112Z,0.00
2022-08-23T00:09:35.088Z,0.00
2022-08-23T00:10:38.339Z,0.00
2022-08-23T00:11:35.130Z,0.00
2022-08-23T00:12:36.047Z,0.00
2022-08-23T00:13:50.411Z,0.00
2022-08-23T00:14:35.019Z,0.00
2022-08-23T00:15:35.056Z,0.00
2022-08-23T00:16:35.033Z,0.00
2022-08-23T00:17:35.282Z,0.00
2022-08-23T00:18:42.217Z,0.00
2022-08-23T00:19:51.332Z,0.00
2022-08-23T00:20:42.285Z,0.00
2022-08-23T00:21:34.989Z,0.00
2022-08-23T00:22:34.939Z,0.00
2022-08-23T00:23:35.181Z,0.00
2022-08-23T00:24:39.247Z,0.00
2022-08-23T00:25:35.939Z,0.00
2022-08-23T00:26:35.937Z,0.00
2022-08-23T00:27:35.146Z,0.00
2022-08-23T00:28:34.884Z,0.00
2022-08-23T00:29:34.880Z,0.00
2022-08-23T00:30:38.153Z,0.00
2022-08-23T00:31:35.852Z,0.00
2022-08-23T00:32:38.105Z,0.00
2022-08-23T00:33:34.878Z,0.00
2022-08-23T00:34:37.872Z,0.00
2022-08-23T00:35:34.831Z,0.00
2022-08-23T00:36:37.837Z,0.00
2022-08-23T00:37:37.866Z,0.00
2022-08-23T00:38:35.295Z,0.00
2022-08-23T00:39:34.789Z,0.00
2022-08-23T00:40:34.786Z,0.00
2022-08-23T00:41:34.751Z,0.00
2022-08-23T00:42:35.976Z,0.00
2022-08-23T00:43:34.758Z,0.00
2022-08-23T00:44:38.004Z,0.00
2022-08-23T00:45:42.130Z,0.00
2022-08-23T00:46:35.732Z,0.00
2022-08-23T00:47:35.933Z,0.00
2022-08-23T00:48:36.149Z,0.00
2022-08-23T00:49:34.681Z,0.00
2022-08-23T00:50:34.643Z,0.00
2022-08-23T00:51:52.178Z,0.00
2022-08-23T00:52:56.631Z,0.00
2022-08-23T00:53:34.627Z,0.00
2022-08-23T00:54:34.675Z,0.00
2022-08-23T00:55:34.839Z,0.00
2022-08-23T00:56:34.590Z,0.00
2022-08-23T00:57:35.604Z,0.00
2022-08-23T00:58:34.814Z,0.00
2022-08-23T00:59:34.793Z,0.00
2022-08-23T01:00:37.833Z,0.00
2022-08-23T01:01:37.838Z,0.00
2022-08-23T01:02:34.564Z,0.00
2022-08-23T01:03:38.487Z,0.00
2022-08-23T01:04:34.537Z,0.00
2022-08-23T01:05:34.493Z,0.00
2022-08-23T01:06:35.523Z,0.00
2022-08-23T01:07:34.493Z,0.00
2022-08-23T01:08:37.492Z,0.00
2022-08-23T01:09:34.454Z,0.00
2022-08-23T01:10:34.463Z,0.00
2022-08-23T01:11:34.644Z,0.00
2022-08-23T01:12:34.455Z,0.00
2022-08-23T01:13:34.632Z,0.00
2022-08-23T01:14:35.407Z,0.00
2022-08-23T01:15:34.652Z,0.00
2022-08-23T01:16:37.656Z,0.00
2022-08-23T01:17:34.394Z,0.00
2022-08-23T01:18:34.368Z,0.00
2022-08-23T01:19:34.376Z,0.00
2022-08-23T01:20:35.389Z,0.00
2022-08-23T01:21:36.452Z,0.00
2022-08-23T01:22:34.340Z,0.00
2022-08-23T01:23:34.535Z,0.00
2022-08-23T01:24:41.203Z,0.00
2022-08-23T01:25:35.536Z,0.00
2022-08-23T01:26:34.288Z,0.00
2022-08-23T01:27:34.509Z,0.00
2022-08-23T01:28:34.507Z,0.00
2022-08-23T01:29:34.260Z,0.00
2022-08-23T01:30:34.460Z,0.00
2022-08-23T01:31:34.249Z,0.00
2022-08-23T01:32:34.470Z,0.00
2022-08-23T01:33:35.468Z,0.00
2022-08-23T01:34:37.223Z,0.00
2022-08-23T01:35:35.184Z,0.00
2022-08-23T01:36:34.423Z,0.00
2022-08-23T01:37:41.709Z,0.00
2022-08-23T01:38:41.371Z,0.00
2022-08-23T01:39:34.141Z,0.00
2022-08-23T01:40:34.176Z,0.00
2022-08-23T01:41:37.144Z,0.00
2022-08-23T01:42:34.373Z,0.00
2022-08-23T01:43:34.103Z,0.00
2022-08-23T01:44:34.321Z,0.00
2022-08-23T01:45:34.091Z,0.00
2022-08-23T01:46:34.064Z,0.00
2022-08-23T01:47:34.298Z,0.00
2022-08-23T01:48:34.313Z,0.00
2022-08-23T01:49:34.283Z,0.00
2022-08-23T01:50:34.278Z,0.00
2022-08-23T01:51:34.244Z,0.00
2022-08-23T01:52:35.056Z,0.00
2022-08-23T01:53:34.016Z,0.00
2022-08-23T01:54:33.985Z,0.00
2022-08-23T01:55:33.975Z,0.00
2022-08-23T01:56:38.854Z,0.00
2022-08-23T01:57:35.954Z,0.00
2022-08-23T01:58:33.964Z,0.00
2022-08-23T01:59:33.939Z,0.00
2022-08-23T02:00:34.947Z,0.00
2022-08-23T02:01:34.008Z,0.00
2022-08-23T02:02:34.125Z,0.00
2022-08-23T02:03:34.161Z,0.00
2022-08-23T02:04:34.118Z,0.00
2022-08-23T02:05:34.095Z,0.00
2022-08-23T02:06:33.864Z,0.00
2022-08-23T02:07:34.063Z,0.00
2022-08-23T02:08:33.865Z,0.00
2022-08-23T02:09:34.080Z,0.00
2022-08-23T02:10:34.044Z,0.00
2022-08-23T02:11:33.798Z,0.00
2022-08-23T02:12:40.904Z,0.00
2022-08-23T02:13:34.038Z,0.00
2022-08-23T02:14:33.795Z,0.00
2022-08-23T02:15:33.756Z,0.00
2022-08-23T02:16:33.756Z,0.00
2022-08-23T02:17:34.977Z,0.00
2022-08-23T02:18:33.755Z,0.00
2022-08-23T02:19:33.956Z,0.00
2022-08-23T02:20:33.717Z,0.00
2022-08-23T02:21:33.928Z,0.00
2022-08-23T02:22:36.754Z,0.00
2022-08-23T02:23:33.910Z,0.00
2022-08-23T02:24:33.920Z,0.00
2022-08-23T02:25:33.670Z,0.00
2022-08-23T02:26:34.382Z,0.00
2022-08-23T02:27:34.635Z,0.00
2022-08-23T02:28:33.650Z,0.00
2022-08-23T02:29:33.610Z,0.00
2022-08-23T02:30:33.640Z,0.00
2022-08-23T02:31:33.828Z,0.00
2022-08-23T02:32:34.840Z,0.00
2022-08-23T02:33:33.575Z,0.00
2022-08-23T02:34:33.560Z,0.00
2022-08-23T02:35:33.799Z,0.00
2022-08-23T02:36:33.546Z,0.00
2022-08-23T02:37:40.812Z,0.00
2022-08-23T02:38:33.529Z,0.00
2022-08-23T02:39:34.750Z,0.00
2022-08-23T02:40:33.783Z,0.00
2022-08-23T02:41:33.739Z,0.00
2022-08-23T02:42:34.512Z,0.00
2022-08-23T02:43:39.379Z,0.00
2022-08-23T02:44:33.457Z,0.00
2022-08-23T02:45:33.435Z,0.00
2022-08-23T02:46:33.460Z,0.00
2022-08-23T02:47:34.432Z,0.00
2022-08-23T02:48:36.470Z,0.00
2022-08-23T02:49:34.437Z,0.00
2022-08-23T02:50:40.533Z,0.00
2022-08-23T02:51:33.437Z,0.00
2022-08-23T02:52:40.608Z,0.00
2022-08-23T02:53:33.594Z,0.00
2022-08-23T02:54:33.355Z,0.00
2022-08-23T02:55:33.339Z,0.00
2022-08-23T02:56:33.316Z,0.00
2022-08-23T02:57:33.325Z,0.00
2022-08-23T02:58:33.312Z,0.00
2022-08-23T02:59:33.533Z,0.00
2022-08-23T03:00:33.286Z,0.00
2022-08-23T03:01:33.519Z,0.00
2022-08-23T03:02:34.644Z,0.00
2022-08-23T03:03:34.298Z,0.00
2022-08-23T03:04:36.272Z,0.00
2022-08-23T03:05:33.458Z,0.00
2022-08-23T03:06:33.504Z,0.00
2022-08-23T03:07:34.453Z,0.00
2022-08-23T03:08:40.342Z,0.00
2022-08-23T03:09:33.196Z,0.00
2022-08-23T03:10:33.445Z,0.00
2022-08-23T03:11:33.169Z,0.00
2022-08-23T03:12:33.189Z,0.00
2022-08-23T03:13:33.419Z,0.00
2022-08-23T03:14:34.393Z,0.00
2022-08-23T03:15:33.180Z,0.00
2022-08-23T03:16:34.107Z,0.00
2022-08-23T03:17:34.117Z,0.00
2022-08-23T03:18:33.332Z,0.00
2022-08-23T03:19:33.353Z,0.00
2022-08-23T03:20:34.094Z,0.00
2022-08-23T03:21:33.314Z,0.00
2022-08-23T03:22:36.099Z,0.00
2022-08-23T03:23:33.302Z,0.00
2022-08-23T03:24:33.072Z,0.00
2022-08-23T03:25:33.022Z,0.00
2022-08-23T03:26:33.023Z,0.00
2022-08-23T03:27:44.575Z,0.00
2022-08-23T03:28:33.994Z,0.00
2022-08-23T03:29:36.242Z,0.00
2022-08-23T03:30:40.252Z,0.00
2022-08-23T03:31:32.953Z,0.00
2022-08-23T03:32:33.193Z,0.00
2022-08-23T03:33:32.994Z,0.00
2022-08-23T03:34:32.934Z,0.00
2022-08-23T03:35:35.967Z,0.00
2022-08-23T03:36:33.154Z,0.00
2022-08-23T03:37:35.934Z,0.00
2022-08-23T03:38:34.128Z,0.00
2022-08-23T03:39:33.116Z,0.00
2022-08-23T03:40:32.868Z,0.00
2022-08-23T03:41:32.887Z,0.00
2022-08-23T03:42:32.849Z,0.00
2022-08-23T03:43:33.066Z,0.00
2022-08-23T03:44:32.823Z,0.00
2022-08-23T03:45:33.858Z,0.00
2022-08-23T03:46:34.327Z,0.00
2022-08-23T03:47:32.817Z,0.00
2022-08-23T03:48:57.077Z,0.00
2022-08-23T03:49:40.190Z,0.00
2022-08-23T03:50:33.797Z,0.00
2022-08-23T03:51:35.799Z,0.00
2022-08-23T03:52:32.765Z,0.00
2022-08-23T03:53:32.755Z,0.00
2022-08-23T03:54:33.969Z,0.00
2022-08-23T03:55:32.970Z,0.00
2022-08-23T03:56:33.952Z,0.00
2022-08-23T03:57:48.143Z,0.00
2022-08-23T03:58:32.688Z,0.00
2022-08-23T03:59:32.922Z,0.00
2022-08-23T04:00:32.883Z,0.00
2022-08-23T04:01:33.141Z,0.00
2022-08-23T04:02:32.862Z,0.00
2022-08-23T04:03:32.856Z,0.00
2022-08-23T04:04:32.609Z,0.00
2022-08-23T04:05:33.638Z,0.00
2022-08-23T04:06:39.848Z,0.00
2022-08-23T04:07:32.585Z,0.00
2022-08-23T04:08:33.499Z,0.00
2022-08-23T04:09:32.564Z,0.00
2022-08-23T04:10:32.808Z,0.00
2022-08-23T04:11:32.541Z,0.00
2022-08-23T04:12:39.867Z,0.00
2022-08-23T04:13:32.768Z,0.00
2022-08-23T04:14:32.763Z,0.00
2022-08-23T04:15:33.502Z,0.00
2022-08-23T04:16:33.514Z,0.00
2022-08-23T04:17:32.812Z,0.00
2022-08-23T04:18:32.480Z,0.00
2022-08-23T04:19:39.928Z,0.00
2022-08-23T04:20:32.692Z,0.00
2022-08-23T04:21:32.431Z,0.00
2022-08-23T04:22:33.682Z,0.00
2022-08-23T04:23:32.688Z,0.00
2022-08-23T04:24:32.408Z,0.00
2022-08-23T04:25:35.704Z,0.00
2022-08-23T04:26:32.602Z,0.00
2022-08-23T04:27:32.611Z,0.00
2022-08-23T04:28:35.394Z,0.00
2022-08-23T04:29:34.577Z,0.00
2022-08-23T04:30:32.351Z,0.00
2022-08-23T04:31:35.366Z,0.00
2022-08-23T04:32:35.400Z,0.00
2022-08-23T04:33:32.321Z,0.00
2022-08-23T04:34:32.347Z,0.00
2022-08-23T04:35:35.316Z,0.00
2022-08-23T04:36:34.624Z,0.00
2022-08-23T04:37:32.492Z,5.62
2022-08-23T04:38:32.488Z,5.62
2022-08-23T04:39:32.277Z,5.62
2022-08-23T04:40:33.295Z,5.62
2022-08-23T04:41:47.537Z,5.62
2022-08-23T04:42:32.203Z,5.62
2022-08-23T04:43:32.205Z,5.62
2022-08-23T04:44:32.184Z,5.62
2022-08-23T04:45:32.216Z,5.62
2022-08-23T04:46:32.420Z,5.62
2022-08-23T04:47:35.217Z,5.62
2022-08-23T04:48:39.702Z,5.62
2022-08-23T04:49:35.404Z,5.62
2022-08-23T04:50:32.370Z,5.62
2022-08-23T04:51:32.145Z,11.25
2022-08-23T04:52:32.148Z,11.25
2022-08-23T04:53:33.101Z,11.25
2022-08-23T04:54:39.366Z,11.25
2022-08-23T04:55:32.307Z,11.25
2022-08-23T04:56:32.335Z,11.25
2022-08-23T04:57:35.099Z,11.25
2022-08-23T04:58:32.064Z,11.25
2022-08-23T04:59:33.075Z,11.25
2022-08-23T05:00:32.138Z,11.25
2022-08-23T05:01:32.322Z,11.25
2022-08-23T05:02:33.261Z,16.88
2022-08-23T05:03:32.068Z,16.88
2022-08-23T05:04:32.234Z,16.88
2022-08-23T05:05:31.964Z,16.88
2022-08-23T05:06:32.199Z,16.88
2022-08-23T05:07:42.297Z,16.88
2022-08-23T05:08:32.939Z,16.88
2022-08-23T05:09:31.961Z,16.88
2022-08-23T05:10:32.917Z,16.88
2022-08-23T05:11:33.144Z,16.88
2022-08-23T05:12:31.926Z,22.50
2022-08-23T05:13:32.733Z,22.50
2022-08-23T05:14:31.875Z,22.50
2022-08-23T05:15:31.860Z,22.50
2022-08-23T05:16:32.114Z,22.50
2022-08-23T05:17:31.864Z,22.50
2022-08-23T05:18:33.081Z,28.12
2022-08-23T05:19:34.868Z,28.12
2022-08-23T05:20:34.834Z,28.12
2022-08-23T05:21:32.044Z,28.12
2022-08-23T05:22:31.826Z,28.12
2022-08-23T05:23:32.493Z,28.12
2022-08-23T05:24:31.779Z,28.12
2022-08-23T05:25:31.744Z,28.12
2022-08-23T05:26:31.792Z,28.12
2022-08-23T05:27:31.736Z,28.12
2022-08-23T05:28:31.951Z,28.12
2022-08-23T05:29:31.955Z,28.12
2022-08-23T05:30:31.937Z,28.12
2022-08-23T05:31:31.918Z,33.75
2022-08-23T05:32:33.582Z,33.75
2022-08-23T05:33:31.716Z,33.75
2022-08-23T05:34:31.701Z,33.75
2022-08-23T05:35:32.688Z,33.75
2022-08-23T05:36:31.670Z,39.38
2022-08-23T05:37:32.707Z,39.38
2022-08-23T05:38:31.640Z,39.38
2022-08-23T05:39:35.969Z,39.38
2022-08-23T05:40:32.840Z,39.38
2022-08-23T05:41:37.820Z,45.00
2022-08-23T05:42:32.671Z,45.00
2022-08-23T05:43:31.571Z,45.00
2022-08-23T05:44:36.197Z,45.00
2022-08-23T05:45:32.577Z,50.62
2022-08-23T05:46:31.553Z,50.62
2022-08-23T05:47:31.897Z,50.62
2022-08-23T05:48:31.515Z,56.25
2022-08-23T05:49:38.660Z,56.25
2022-08-23T05:50:31.521Z,56.25
2022-08-23T05:51:34.767Z,56.25
2022-08-23T05:52:38.844Z,56.25
2022-08-23T05:53:32.500Z,56.25
2022-08-23T05:54:38.689Z,56.25
2022-08-23T05:55:34.824Z,56.25
2022-08-23T05:56:31.676Z,61.88
2022-08-23T05:57:38.927Z,61.88
2022-08-23T05:58:31.415Z,67.50
2022-08-23T05:59:31.655Z,73.12
2022-08-23T06:00:38.270Z,73.12
2022-08-23T06:01:33.625Z,78.75
2022-08-23T06:02:31.606Z,78.75
2022-08-23T06:03:31.605Z,78.75
2022-08-23T06:04:31.358Z,78.75
2022-08-23T06:05:32.370Z,78.75
2022-08-23T06:06:38.820Z,78.75
2022-08-23T06:07:31.315Z,84.38
2022-08-23T06:08:31.567Z,84.38
2022-08-23T06:09:31.510Z,84.38
2022-08-23T06:10:32.307Z,84.38
2022-08-23T06:11:31.297Z,90.00
2022-08-23T06:12:31.497Z,90.00
2022-08-23T06:13:31.474Z,90.00
2022-08-23T06:14:31.626Z,90.00
2022-08-23T06:15:32.260Z,90.00
2022-08-23T06:16:31.238Z,90.00
2022-08-23T06:17:32.211Z,90.00
2022-08-23T06:18:34.269Z,90.00
2022-08-23T06:19:31.186Z,95.62
2022-08-23T06:20:32.255Z,95.62
2022-08-23T06:21:31.185Z,95.62
2022-08-23T06:22:31.164Z,101.25
2022-08-23T06:23:31.178Z,106.88
2022-08-23T06:24:32.409Z,106.88
2022-08-23T06:25:38.496Z,112.50
2022-08-23T06:26:31.372Z,112.50
2022-08-23T06:27:31.340Z,118.12
2022-08-23T06:28:31.354Z,118.12
2022-08-23T06:29:31.325Z,112.50
2022-08-23T06:30:32.361Z,118.12
2022-08-23T06:31:31.333Z,112.50
2022-08-23T06:32:34.111Z,112.50
2022-08-23T06:33:31.080Z,118.12
2022-08-23T06:34:34.072Z,118.12
2022-08-23T06:35:46.752Z,118.12
2022-08-23T06:36:31.036Z,118.12
2022-08-23T06:37:46.321Z,123.75
2022-08-23T06:38:30.990Z,123.75
2022-08-23T06:39:33.450Z,123.75
2022-08-23T06:40:33.237Z,129.38
2022-08-23T06:41:31.204Z,123.75
2022-08-23T06:42:39.049Z,123.75
2022-08-23T06:43:32.180Z,123.75
2022-08-23T06:44:31.165Z,123.75
2022-08-23T06:45:35.083Z,123.75
2022-08-23T06:46:30.992Z,123.75
2022-08-23T06:47:46.380Z,123.75
2022-08-23T06:48:30.891Z,123.75
2022-08-23T06:49:31.127Z,118.12
2022-08-23T06:50:32.651Z,118.12
2022-08-23T06:51:30.896Z,112.50
2022-08-23T06:52:34.133Z,101.25
2022-08-23T06:53:31.055Z,95.62
2022-08-23T06:54:30.826Z,95.62
2022-08-23T06:55:30.864Z,95.62
2022-08-23T06:56:30.831Z,95.62
2022-08-23T06:57:30.805Z,95.62
2022-08-23T06:58:30.814Z,101.25
2022-08-23T06:59:33.789Z,101.25
2022-08-23T07:00:30.812Z,101.25
2022-08-23T07:01:49.553Z,106.88
2022-08-23T07:02:32.028Z,106.88
2022-08-23T07:03:32.215Z,101.25
2022-08-23T07:04:30.945Z,101.25
2022-08-23T07:05:31.995Z,95.62
2022-08-23T07:06:30.932Z,90.00
2022-08-23T07:07:39.715Z,90.00
2022-08-23T07:08:31.928Z,90.00
2022-08-23T07:09:30.903Z,90.00
2022-08-23T07:10:30.644Z,90.00
2022-08-23T07:11:30.647Z,84.38
2022-08-23T07:12:31.637Z,84.38
2022-08-23T07:13:37.719Z,84.38
2022-08-23T07:14:30.855Z,84.38
2022-08-23T07:15:30.836Z,84.38
2022-08-23T07:16:37.768Z,84.38
2022-08-23T07:17:30.820Z,84.38
2022-08-23T07:18:32.189Z,84.38
2022-08-23T07:19:30.799Z,84.38
2022-08-23T07:20:30.776Z,84.38
2022-08-23T07:21:30.550Z,84.38
2022-08-23T07:22:31.604Z,84.38
2022-08-23T07:23:30.529Z,90.00
2022-08-23T07:24:33.293Z,90.00
2022-08-23T07:25:30.535Z,84.38
2022-08-23T07:26:30.505Z,84.38
2022-08-23T07:27:30.492Z,84.38
2022-08-23T07:28:30.462Z,90.00
2022-08-23T07:29:30.468Z,95.62
2022-08-23T07:30:30.472Z,101.25
2022-08-23T07:31:30.502Z,106.88
2022-08-23T07:32:33.441Z,112.50
2022-08-23T07:33:30.435Z,112.50
2022-08-23T07:34:30.408Z,112.50
2022-08-23T07:35:30.407Z,106.88
2022-08-23T07:36:30.377Z,101.25
2022-08-23T07:37:30.423Z,95.62
2022-08-23T07:38:30.575Z,90.00
2022-08-23T07:39:30.340Z,90.00
2022-08-23T07:40:30.377Z,90.00
2022-08-23T07:41:31.134Z,90.00
2022-08-23T07:42:31.335Z,95.62
2022-08-23T07:43:30.534Z,95.62
2022-08-23T07:44:30.313Z,95.62
2022-08-23T07:45:30.299Z,95.62
2022-08-23T07:46:30.360Z,95.62
2022-08-23T07:47:50.121Z,95.62
2022-08-23T07:48:52.542Z,95.62
2022-08-23T07:49:31.254Z,101.25
2022-08-23T07:50:31.484Z,101.25
2022-08-23T07:51:30.496Z,101.25
2022-08-23T07:52:30.444Z,101.25
2022-08-23T07:53:37.381Z,101.25
2022-08-23T07:54:34.255Z,101.25
2022-08-23T07:55:30.181Z,101.25
2022-08-23T07:56:30.229Z,101.25
2022-08-23T07:57:30.176Z,101.25
2022-08-23T07:58:30.176Z,101.25
2022-08-23T07:59:34.111Z,101.25
2022-08-23T08:00:30.157Z,101.25
2022-08-23T08:01:30.290Z,101.25
2022-08-23T08:02:30.208Z,101.25
2022-08-23T08:03:30.101Z,101.25
2022-08-23T08:04:30.095Z,101.25
2022-08-23T08:05:30.108Z,101.25
2022-08-23T08:06:30.084Z,106.88
2022-08-23T08:07:30.924Z,106.88
2022-08-23T08:08:31.049Z,106.88
2022-08-23T08:09:30.057Z,112.50
2022-08-23T08:10:30.017Z,118.12
2022-08-23T08:11:34.449Z,123.75
2022-08-23T08:12:31.022Z,129.38
2022-08-23T08:13:30.013Z,129.38
2022-08-23T08:14:29.979Z,129.38
2022-08-23T08:15:29.974Z,123.75
2022-08-23T08:16:30.009Z,118.12
2022-08-23T08:17:29.950Z,118.12
2022-08-23T08:18:29.965Z,118.12
2022-08-23T08:19:29.945Z,118.12
2022-08-23T08:20:29.908Z,118.12
2022-08-23T08:21:29.918Z,118.12
2022-08-23T08:22:29.891Z,118.12
2022-08-23T08:23:29.974Z,118.12
2022-08-23T08:24:29.881Z,118.12
2022-08-23T08:25:29.858Z,118.12
2022-08-23T08:26:29.845Z,118.12
2022-08-23T08:27:29.889Z,118.12
2022-08-23T08:28:29.832Z,118.12
2022-08-23T08:29:29.885Z,118.12
2022-08-23T08:30:29.817Z,118.12
2022-08-23T08:31:29.833Z,118.12
2022-08-23T08:32:29.846Z,118.12
2022-08-23T08:33:30.678Z,123.75
2022-08-23T08:34:29.798Z,123.75
2022-08-23T08:35:29.772Z,123.75
2022-08-23T08:36:29.750Z,123.75
2022-08-23T08:37:30.691Z,123.75
2022-08-23T08:38:30.705Z,123.75
2022-08-23T08:39:29.967Z,123.75
2022-08-23T08:40:29.729Z,123.75
2022-08-23T08:41:29.701Z,129.38
2022-08-23T08:42:29.681Z,129.38
2022-08-23T08:43:29.681Z,129.38
2022-08-23T08:44:29.706Z,129.38
2022-08-23T08:45:29.671Z,129.38
2022-08-23T08:46:29.736Z,135.00
2022-08-23T08:47:29.646Z,135.00
2022-08-23T08:48:29.722Z,135.00
2022-08-23T08:49:29.640Z,135.00
2022-08-23T08:50:29.604Z,135.00
2022-08-23T08:51:29.604Z,140.62
2022-08-23T08:52:31.109Z,140.62
2022-08-23T08:53:29.609Z,140.62
2022-08-23T08:54:29.571Z,140.62
2022-08-23T08:55:29.561Z,140.62
2022-08-23T08:56:32.654Z,146.25
2022-08-23T08:57:29.552Z,146.25
2022-08-23T08:58:29.539Z,146.25
2022-08-23T08:59:29.564Z,146.25
2022-08-23T09:00:29.515Z,146.25
2022-08-23T09:01:29.533Z,146.25
2022-08-23T09:02:33.097Z,146.25
2022-08-23T09:03:29.566Z,146.25
2022-08-23T09:04:29.451Z,146.25
2022-08-23T09:05:29.466Z,146.25
2022-08-23T09:06:29.433Z,146.25
2022-08-23T09:07:31.348Z,146.25
2022-08-23T09:08:29.420Z,146.25
2022-08-23T09:09:29.439Z,146.25
2022-08-23T09:10:29.406Z,146.25
2022-08-23T09:11:29.376Z,146.25
2022-08-23T09:12:29.593Z,151.88
2022-08-23T09:13:29.381Z,151.88
2022-08-23T09:14:29.352Z,151.88
2022-08-23T09:15:29.392Z,151.88
2022-08-23T09:16:29.384Z,151.88
2022-08-23T09:17:29.324Z,151.88
2022-08-23T09:18:29.304Z,151.88
2022-08-23T09:19:29.320Z,157.50
2022-08-23T09:20:32.901Z,157.50
2022-08-23T09:21:29.282Z,157.50
2022-08-23T09:22:29.267Z,157.50
2022-08-23T09:23:29.259Z,157.50
2022-08-23T09:24:29.249Z,163.12
2022-08-23T09:25:29.259Z,163.12
2022-08-23T09:26:29.221Z,163.12
2022-08-23T09:27:29.228Z,163.12
2022-08-23T09:28:29.229Z,163.12
2022-08-23T09:29:29.201Z,163.12
2022-08-23T09:30:29.200Z,163.12
2022-08-23T09:31:32.060Z,163.12
2022-08-23T09:32:30.172Z,163.12
2022-08-23T09:33:29.170Z,163.12
2022-08-23T09:34:29.128Z,163.12
2022-08-23T09:35:29.135Z,163.12
2022-08-23T09:36:29.145Z,163.12
2022-08-23T09:37:29.829Z,163.12
2022-08-23T09:38:29.106Z,163.12
2022-08-23T09:39:30.352Z,163.12
2022-08-23T09:40:29.091Z,163.12
2022-08-23T09:41:29.073Z,163.12
2022-08-23T09:42:29.067Z,157.50
2022-08-23T09:43:29.065Z,157.50
2022-08-23T09:44:29.049Z,157.50
2022-08-23T09:45:33.173Z,157.50
2022-08-23T09:46:30.065Z,157.50
2022-08-23T09:47:29.046Z,157.50
2022-08-23T09:48:31.234Z,157.50
2022-08-23T09:49:28.990Z,157.50
2022-08-23T09:50:29.092Z,157.50
2022-08-23T09:51:28.984Z,157.50
2022-08-23T09:52:28.966Z,157.50
2022-08-23T09:53:28.990Z,157.50
2022-08-23T09:54:28.936Z,157.50
2022-08-23T09:55:29.176Z,157.50
2022-08-23T09:56:28.989Z,157.50
2022-08-23T09:57:28.928Z,157.50
2022-08-23T09:58:28.888Z,151.88
2022-08-23T09:59:28.894Z,151.88
2022-08-23T10:00:28.864Z,151.88
2022-08-23T10:01:28.947Z,151.88
2022-08-23T10:02:28.841Z,151.88
2022-08-23T10:03:28.851Z,151.88
2022-08-23T10:04:28.892Z,151.88
2022-08-23T10:05:29.809Z,151.88
2022-08-23T10:06:31.194Z,151.88
2022-08-23T10:07:28.810Z,151.88
2022-08-23T10:08:28.832Z,151.88
2022-08-23T10:09:28.774Z,151.88
2022-08-23T10:10:28.797Z,151.88
2022-08-23T10:11:28.753Z,151.88
2022-08-23T10:12:28.748Z,151.88
2022-08-23T10:13:28.753Z,151.88
2022-08-23T10:14:30.622Z,151.88
2022-08-23T10:15:30.999Z,151.88
2022-08-23T10:16:29.775Z,151.88
2022-08-23T10:17:28.715Z,151.88
2022-08-23T10:18:28.688Z,151.88
2022-08-23T10:19:28.674Z,151.88
2022-08-23T10:20:28.681Z,151.88
2022-08-23T10:21:28.657Z,151.88
2022-08-23T10:22:28.706Z,146.25
2022-08-23T10:23:28.606Z,151.88
2022-08-23T10:24:28.630Z,146.25
2022-08-23T10:25:28.606Z,140.62
2022-08-23T10:26:28.595Z,140.62
2022-08-23T10:27:28.630Z,140.62
2022-08-23T10:28:28.599Z,140.62
2022-08-23T10:29:28.590Z,140.62
2022-08-23T10:30:28.560Z,140.62
2022-08-23T10:31:28.637Z,140.62
2022-08-23T10:32:28.523Z,135.00
2022-08-23T10:33:28.537Z,135.00
2022-08-23T10:34:30.064Z,135.00
2022-08-23T10:35:28.504Z,135.00
2022-08-23T10:36:28.511Z,135.00
2022-08-23T10:37:28.544Z,135.00
2022-08-23T10:38:28.511Z,135.00
2022-08-23T10:39:28.487Z,135.00
2022-08-23T10:40:28.509Z,135.00
2022-08-23T10:41:28.443Z,129.38
2022-08-23T10:42:28.445Z,129.38
2022-08-23T10:43:28.457Z,129.38
2022-08-23T10:44:28.406Z,129.38
2022-08-23T10:45:28.422Z,129.38
2022-08-23T10:46:28.475Z,129.38
2022-08-23T10:47:28.427Z,129.38
2022-08-23T10:48:28.390Z,129.38
2022-08-23T10:49:28.407Z,129.38
2022-08-23T10:50:28.335Z,129.38
2022-08-23T10:51:31.742Z,129.38
2022-08-23T10:52:28.337Z,129.38
2022-08-23T10:53:28.351Z,129.38
2022-08-23T10:54:28.390Z,129.38
2022-08-23T10:55:28.294Z,129.38
2022-08-23T10:56:28.276Z,129.38
2022-08-23T10:57:28.349Z,129.38
2022-08-23T10:58:29.238Z,129.38
2022-08-23T10:59:28.293Z,123.75
2022-08-23T11:00:28.254Z,123.75
2022-08-23T11:01:28.237Z,123.75
2022-08-23T11:02:28.265Z,123.75
2022-08-23T11:03:29.049Z,123.75
2022-08-23T11:04:28.256Z,123.75
2022-08-23T11:05:28.177Z,123.75
2022-08-23T11:06:28.181Z,123.75
2022-08-23T11:07:28.169Z,123.75
2022-08-23T11:08:28.148Z,123.75
2022-08-23T11:09:28.167Z,123.75
2022-08-23T11:10:28.115Z,123.75
2022-08-23T11:11:28.130Z,118.12
2022-08-23T11:12:28.100Z,118.12
2022-08-23T11:13:28.098Z,118.12
2022-08-23T11:14:28.117Z,118.12
2022-08-23T11:15:28.154Z,118.12
2022-08-23T11:16:28.067Z,118.12
2022-08-23T11:17:28.077Z,118.12
2022-08-23T11:18:31.299Z,118.12
2022-08-23T11:19:29.050Z,118.12
2022-08-23T11:20:28.086Z,118.12
2022-08-23T11:21:28.011Z,118.12
2022-08-23T11:22:28.023Z,118.12
2022-08-23T11:23:28.011Z,118.12
2022-08-23T11:24:27.981Z,118.12
2022-08-23T11:25:28.009Z,118.12
2022-08-23T11:26:27.980Z,118.12
2022-08-23T11:27:27.988Z,112.50
2022-08-23T11:28:28.427Z,112.50
2022-08-23T11:29:27.939Z,112.50
2022-08-23T11:30:27.946Z,112.50
2022-08-23T11:31:27.984Z,112.50
2022-08-23T11:32:30.008Z,112.50
2022-08-23T11:33:27.905Z,112.50
2022-08-23T11:34:29.727Z,112.50
2022-08-23T11:35:27.873Z,112.50
2022-08-23T11:36:27.886Z,112.50
2022-08-23T11:37:27.852Z,112.50
2022-08-23T11:38:27.856Z,112.50
2022-08-23T11:39:27.867Z,112.50
2022-08-23T11:40:28.503Z,112.50
2022-08-23T11:41:27.863Z,112.50
2022-08-23T11:42:27.796Z,112.50
2022-08-23T11:43:27.789Z,112.50
2022-08-23T11:44:27.772Z,112.50
2022-08-23T11:45:27.850Z,112.50
2022-08-23T11:46:27.885Z,106.88
2022-08-23T11:47:27.755Z,106.88
2022-08-23T11:48:27.762Z,106.88
2022-08-23T11:49:27.730Z,106.88
2022-08-23T11:50:27.718Z,106.88
2022-08-23T11:51:27.725Z,106.88
2022-08-23T11:52:27.717Z,106.88
2022-08-23T11:53:27.687Z,106.88
2022-08-23T11:54:27.684Z,106.88
2022-08-23T11:55:27.675Z,106.88
2022-08-23T11:56:27.647Z,106.88
2022-08-23T11:57:28.236Z,106.88
2022-08-23T11:58:27.706Z,106.88
2022-08-23T11:59:27.645Z,106.88
2022-08-23T12:00:29.171Z,106.88
2022-08-23T12:01:27.623Z,106.88
2022-08-23T12:02:27.741Z,106.88
2022-08-23T12:03:27.779Z,106.88
2022-08-23T12:04:27.579Z,106.88
2022-08-23T12:05:27.552Z,106.88
2022-08-23T12:06:27.576Z,101.25
2022-08-23T12:07:27.590Z,101.25
2022-08-23T12:08:27.517Z,101.25
2022-08-23T12:09:27.543Z,101.25
2022-08-23T12:10:27.522Z,106.88
2022-08-23T12:11:27.535Z,106.88
2022-08-23T12:12:27.511Z,101.25
2022-08-23T12:13:27.481Z,106.88
2022-08-23T12:14:27.496Z,106.88
2022-08-23T12:15:27.508Z,106.88
2022-08-23T12:16:28.900Z,95.62
2022-08-23T12:17:27.575Z,95.62
2022-08-23T12:18:27.493Z,95.62
2022-08-23T12:19:27.427Z,101.25
2022-08-23T12:20:27.434Z,101.25
2022-08-23T12:21:27.382Z,101.25
2022-08-23T12:22:28.611Z,101.25
2022-08-23T12:23:27.399Z,95.62
2022-08-23T12:24:27.365Z,95.62
2022-08-23T12:25:27.347Z,95.62
2022-08-23T12:26:27.341Z,101.25
2022-08-23T12:27:27.348Z,101.25
2022-08-23T12:28:27.407Z,101.25
2022-08-23T12:29:27.332Z,101.25
2022-08-23T12:30:27.293Z,101.25
2022-08-23T12:31:27.339Z,101.25
2022-08-23T12:32:28.797Z,101.25
2022-08-23T12:33:27.271Z,101.25
2022-08-23T12:34:27.281Z,101.25
2022-08-23T12:35:27.257Z,101.25
2022-08-23T12:36:27.236Z,101.25
2022-08-23T12:37:27.233Z,101.25
2022-08-23T12:38:27.213Z,106.88
2022-08-23T12:39:27.229Z,101.25
2022-08-23T12:40:27.203Z,106.88
2022-08-23T12:41:28.193Z,106.88
2022-08-23T12:42:27.211Z,95.62
2022-08-23T12:43:27.168Z,101.25
2022-08-23T12:44:27.159Z,101.25
2022-08-23T12:45:27.165Z,90.00
2022-08-23T12:46:27.212Z,90.00
2022-08-23T12:47:27.116Z,90.00
2022-08-23T12:48:27.116Z,78.75
2022-08-23T12:49:27.098Z,90.00
2022-08-23T12:50:32.787Z,84.38
2022-08-23T12:51:28.075Z,84.38